Tucson, AZ

10:51 AM MST on August 24, 2016 (GMT -0700)
RAWS | | Change Station

Elev 2264 ft 32.31 °N, 110.82 °W | Updated 43 minutes ago

Clear
Clear
88.0 °F
Feels Like 88.0 °F
N
3.0
Wind Variable Wind from SSW
Gusts 8.0 mph

Today
High -- | Low -- °F
--% Chance of Precip.
Yesterday
High -- | Low -- °F
Precip. -- in
Pressure 29.98 in
Visibility 10.0 miles
Clouds Clear
Dew Point 53.0 °F
Humidity 30%
Rainfall in
Snow Depth Not available.
5:53 AM 6:56 PM
Waning Gibbous, 55% visible
METAR KDMA 241658Z AUTO 00000KT 10SM CLR 29/10 A3011 RMK AO2 SLP152 T02910101 $
Pressure 29.98 in
Visibility 10.0 miles
Clouds Clear
Dew Point 53.0 °F
Humidity 30%
Rainfall in
Snow Depth Not available.
5:53 AM 6:56 PM
Waning Gibbous, 55% visible
METAR KDMA 241658Z AUTO 00000KT 10SM CLR 29/10 A3011 RMK AO2 SLP152 T02910101 $

10-Day Weather Forecast

Almanac

Astronomy

Aug. 24, 2016 Rise Set
Actual Time
Civil Twilight
Nautical Twilight
Astronomical Twilight
Moon
Length of Visible Light
Length of Day
Tomorrow will be .
, % of the Moon is Illuminated

Today's Extremes

State Highs State Lows

Community

WunderPhotos

Upload Photos

1,934,661 photos uploaded!

WunderBlog® & News

Nearby

Air Quality

  Air Quality AQ Index Pollutant
Not available.

Snow Depth

Station Depth Elevation

Earthquake Activity

City Distance Mag. Time & Date
Minimum magnitude displayed is 2.5.

Coastal Water Temperatures

Place Temperature

Stations

Nearby Weather Stations

Station Location Temp. Windchill Dew Point Humidity Wind Precip. Elev Updated Type
                   

Watches & Warnings

There are currently no watches in effect.